Time;durP1;ratioP1;P1;durP2;ratioP2;P2;SDS_P1;SDS_P2;PMS_P1;PMS_P2;Temp;Humidity;BMP_temperature;BMP_pressure;BME280_temperature;BME280_humidity;BME280_pressure;Samples;Min_cycle;Max_cycle;Signal;HPM_P1;HPM_P2
2021/04/21 00:02:21;;;;;;;16.17;11.70;;;;;;;;;;5119916;27;20505;-50
2021/04/21 00:04:48;;;;;;;15.07;10.85;;;;;;;;;;5132644;27;20085;-53
2021/04/21 00:07:21;;;;;;;12.65;10.93;;;;;;;;;;5126380;27;20031;-49
2021/04/21 00:09:47;;;;;;;12.70;10.25;;;;;;;;;;5130226;27;20042;-48
2021/04/21 00:12:13;;;;;;;15.88;11.07;;;;;;;;;;5130440;27;20223;-50
2021/04/21 00:14:39;;;;;;;13.25;11.70;;;;;;;;;;5125217;27;20030;-52
2021/04/21 00:17:05;;;;;;;13.50;10.63;;;;;;;;;;5130880;27;20039;-51
2021/04/21 00:19:31;;;;;;;12.32;11.02;;;;;;;;;;5133479;27;20051;-53
2021/04/21 00:21:58;;;;;;;12.77;11.35;;;;;;;;;;5115964;27;20026;-49
2021/04/21 00:24:24;;;;;;;14.40;11.48;;;;;;;;;;5123677;27;20019;-52
2021/04/21 00:26:49;;;;;;;15.35;11.57;;;;;;;;;;5118474;27;20033;-48
2021/04/21 00:29:15;;;;;;;12.63;11.32;;;;;;;;;;5133513;27;20488;-49
2021/04/21 00:31:43;;;;;;;14.75;12.00;;;;;;;;;;5112944;27;20039;-46
2021/04/21 00:34:10;;;;;;;14.38;11.35;;;;;;;;;;5123534;27;20381;-52
2021/04/21 00:36:37;;;;;;;14.20;10.38;;;;;;;;;;5120699;27;20023;-53
2021/04/21 00:39:03;;;;;;;11.95;10.00;;;;;;;;;;5132964;27;20023;-53
2021/04/21 00:41:34;;;;;;;14.70;10.98;;;;;;;;;;5128711;27;20321;-52
2021/04/21 00:44:14;;;;;;;11.93;9.35;;;;;;;;;;5113807;27;20482;-46
2021/04/21 00:46:41;;;;;;;12.73;10.90;;;;;;;;;;5127004;27;20085;-50
2021/04/21 00:49:09;;;;;;;11.45;10.30;;;;;;;;;;5123471;27;20027;-51
2021/04/21 00:51:35;;;;;;;13.88;10.82;;;;;;;;;;5130327;27;20070;-52
2021/04/21 00:54:04;;;;;;;13.07;10.35;;;;;;;;;;5132759;27;20128;-51
2021/04/21 00:56:42;;;;;;;13.32;11.00;;;;;;;;;;5130002;27;20115;-48
2021/04/21 00:59:32;;;;;;;13.38;10.68;;;;;;;;;;5116806;27;20019;-52
2021/04/21 01:01:59;;;;;;;13.02;10.98;;;;;;;;;;5115976;27;20052;-46
2021/04/21 01:04:24;;;;;;;16.48;11.55;;;;;;;;;;5124076;27;20386;-52
2021/04/21 01:06:52;;;;;;;12.23;10.27;;;;;;;;;;5116086;28;20129;-49
2021/04/21 01:09:19;;;;;;;16.48;11.02;;;;;;;;;;5120542;27;20534;-49
2021/04/21 01:11:46;;;;;;;13.27;10.90;;;;;;;;;;5127440;28;20478;-51
2021/04/21 01:14:12;;;;;;;13.63;11.02;;;;;;;;;;5127223;27;20030;-51
2021/04/21 01:16:38;;;;;;;14.25;11.15;;;;;;;;;;5120314;27;20027;-50
2021/04/21 01:19:12;;;;;;;14.35;11.77;;;;;;;;;;5120552;27;20017;-52
2021/04/21 01:21:40;;;;;;;15.05;10.98;;;;;;;;;;5133955;27;20035;-48
2021/04/21 01:24:05;;;;;;;12.15;10.77;;;;;;;;;;5137338;27;20034;-49
2021/04/21 01:26:45;;;;;;;13.93;11.68;;;;;;;;;;5134405;27;20048;-49
2021/04/21 01:29:14;;;;;;;14.63;11.95;;;;;;;;;;5116756;28;20023;-48
2021/04/21 01:31:40;;;;;;;13.63;11.52;;;;;;;;;;5115292;27;20038;-49
2021/04/21 01:34:07;;;;;;;13.20;11.50;;;;;;;;;;5134451;27;20027;-50
2021/04/21 01:36:33;;;;;;;13.60;11.73;;;;;;;;;;5121612;27;20044;-49
2021/04/21 01:38:59;;;;;;;15.05;12.40;;;;;;;;;;5136822;27;20023;-50
2021/04/21 01:41:26;;;;;;;16.63;13.30;;;;;;;;;;5133787;27;20015;-49
2021/04/21 01:43:57;;;;;;;14.63;12.50;;;;;;;;;;5124560;27;20106;-50
2021/04/21 01:46:23;;;;;;;15.60;12.82;;;;;;;;;;5126538;27;20037;-48
2021/04/21 01:48:49;;;;;;;17.67;13.23;;;;;;;;;;5122621;27;20031;-50
2021/04/21 01:51:35;;;;;;;15.52;12.50;;;;;;;;;;5111790;28;20043;-48
2021/04/21 01:54:08;;;;;;;19.08;13.45;;;;;;;;;;5116427;27;20099;-49
2021/04/21 01:56:33;;;;;;;17.42;12.85;;;;;;;;;;5117231;27;20140;-48
2021/04/21 01:59:17;;;;;;;21.00;14.05;;;;;;;;;;5124183;27;20043;-53
2021/04/21 02:01:51;;;;;;;17.65;12.98;;;;;;;;;;5116763;27;20095;-50
2021/04/21 02:04:16;;;;;;;17.75;13.82;;;;;;;;;;5121404;27;20023;-50
2021/04/21 02:06:57;;;;;;;15.13;12.52;;;;;;;;;;5116404;27;20186;-47
2021/04/21 02:09:49;;;;;;;18.30;12.32;;;;;;;;;;5121006;27;20035;-48
2021/04/21 02:12:26;;;;;;;14.98;11.63;;;;;;;;;;5127619;27;20394;-52
2021/04/21 02:15:01;;;;;;;14.00;11.80;;;;;;;;;;5118081;27;20043;-46
2021/04/21 02:17:34;;;;;;;13.90;11.02;;;;;;;;;;5135869;27;20020;-49
2021/04/21 02:20:05;;;;;;;13.80;11.98;;;;;;;;;;5122288;27;20064;-48
2021/04/21 02:22:36;;;;;;;14.52;11.63;;;;;;;;;;5130118;27;20026;-48
2021/04/21 02:25:07;;;;;;;13.30;11.57;;;;;;;;;;5135292;27;20030;-50
2021/04/21 02:27:51;;;;;;;15.20;12.15;;;;;;;;;;5128878;27;20378;-50
2021/04/21 02:30:22;;;;;;;16.55;12.05;;;;;;;;;;5126281;27;20027;-51
2021/04/21 02:33:08;;;;;;;15.20;13.00;;;;;;;;;;5133363;27;20015;-51
2021/04/21 02:35:33;;;;;;;;;;;;;;;;;;5116093;28;20015;-51
2021/04/21 02:38:11;;;;;;;13.93;12.00;;;;;;;;;;5127651;27;19907;-47
2021/04/21 02:40:41;;;;;;;15.55;12.00;;;;;;;;;;5131647;27;20068;-51
2021/04/21 02:43:30;;;;;;;13.43;11.25;;;;;;;;;;5132753;27;20019;-52
2021/04/21 02:45:57;;;;;;;15.48;11.60;;;;;;;;;;5134594;27;20023;-50
2021/04/21 02:48:22;;;;;;;14.45;11.55;;;;;;;;;;5133904;27;20027;-50
2021/04/21 02:51:14;;;;;;;16.88;12.10;;;;;;;;;;5120240;27;20422;-50
2021/04/21 02:53:39;;;;;;;14.63;12.30;;;;;;;;;;5132178;27;20128;-50
2021/04/21 02:56:27;;;;;;;16.10;12.60;;;;;;;;;;5134675;27;20053;-50
2021/04/21 02:59:13;;;;;;;14.32;11.07;;;;;;;;;;5118131;27;20036;-50
2021/04/21 03:01:45;;;;;;;14.68;12.55;;;;;;;;;;5114902;27;20031;-52
2021/04/21 03:04:33;;;;;;;15.82;11.43;;;;;;;;;;5127568;27;20035;-49
2021/04/21 03:07:00;;;;;;;14.63;11.90;;;;;;;;;;5035523;28;20033;-50
2021/04/21 03:09:32;;;;;;;14.32;11.80;;;;;;;;;;5050122;28;20072;-49
2021/04/21 03:11:59;;;;;;;15.95;12.02;;;;;;;;;;5047902;28;20591;-48
2021/04/21 03:14:25;;;;;;;14.93;11.60;;;;;;;;;;5051839;28;20029;-48
2021/04/21 03:16:54;;;;;;;14.75;12.35;;;;;;;;;;5051102;28;20028;-47
2021/04/21 03:19:21;;;;;;;14.55;12.35;;;;;;;;;;5051249;28;20386;-52
2021/04/21 03:21:49;;;;;;;17.10;13.07;;;;;;;;;;5047261;28;20021;-50
2021/04/21 03:24:18;;;;;;;17.92;14.10;;;;;;;;;;5049290;28;20051;-49
2021/04/21 03:26:45;;;;;;;15.10;12.77;;;;;;;;;;5050136;28;20135;-52
2021/04/21 03:29:13;;;;;;;15.35;13.75;;;;;;;;;;5050716;28;20112;-51
2021/04/21 03:31:39;;;;;;;17.80;13.70;;;;;;;;;;5052574;28;20040;-53
2021/04/21 03:34:08;;;;;;;16.42;12.73;;;;;;;;;;5051287;28;20435;-48
2021/04/21 03:36:34;;;;;;;17.90;13.90;;;;;;;;;;5050801;28;20605;-47
2021/04/21 03:39:00;;;;;;;18.30;14.18;;;;;;;;;;5049195;28;20027;-49
2021/04/21 03:41:25;;;;;;;18.20;15.07;;;;;;;;;;5047980;28;20033;-50
2021/04/21 03:43:51;;;;;;;19.40;14.45;;;;;;;;;;5084309;27;20035;-49
2021/04/21 03:46:16;;;;;;;19.00;15.68;;;;;;;;;;5114319;27;20487;-49
2021/04/21 03:48:42;;;;;;;19.15;15.00;;;;;;;;;;5120509;27;20085;-53
2021/04/21 03:51:08;;;;;;;17.08;13.82;;;;;;;;;;5132281;27;20080;-46
2021/04/21 03:53:34;;;;;;;15.45;13.48;;;;;;;;;;5120432;27;20520;-50
2021/04/21 03:56:00;;;;;;;14.35;12.75;;;;;;;;;;5113936;27;20020;-51
2021/04/21 03:58:26;;;;;;;17.25;13.90;;;;;;;;;;5125985;27;20042;-52
2021/04/21 04:01:01;;;;;;;18.70;13.73;;;;;;;;;;5127385;27;20024;-45
2021/04/21 04:03:27;;;;;;;16.77;13.20;;;;;;;;;;5124978;27;20061;-51
2021/04/21 04:06:00;;;;;;;17.80;13.55;;;;;;;;;;5132330;27;20390;-47
2021/04/21 04:08:26;;;;;;;17.33;13.82;;;;;;;;;;5122540;27;20122;-51
2021/04/21 04:10:52;;;;;;;16.38;13.05;;;;;;;;;;5133863;27;20019;-51
2021/04/21 04:13:18;;;;;;;15.63;12.98;;;;;;;;;;5121509;27;20052;-51
2021/04/21 04:15:46;;;;;;;14.15;12.65;;;;;;;;;;5129444;27;20022;-53
2021/04/21 04:18:12;;;;;;;15.18;12.52;;;;;;;;;;5132742;27;20386;-53
2021/04/21 04:20:38;;;;;;;16.40;12.70;;;;;;;;;;5124178;27;20107;-51
2021/04/21 04:23:04;;;;;;;17.15;13.38;;;;;;;;;;5122028;27;20012;-50
2021/04/21 04:25:31;;;;;;;15.18;12.07;;;;;;;;;;5130516;27;20426;-53
2021/04/21 04:27:57;;;;;;;15.00;12.27;;;;;;;;;;5126001;27;20389;-51
2021/04/21 04:30:24;;;;;;;15.70;12.52;;;;;;;;;;5130756;27;20027;-48
2021/04/21 04:32:51;;;;;;;18.00;13.85;;;;;;;;;;5111100;27;20032;-49
2021/04/21 04:35:16;;;;;;;19.90;13.73;;;;;;;;;;5120576;27;20015;-49
2021/04/21 04:37:42;;;;;;;16.05;12.00;;;;;;;;;;5121767;27;20034;-47
2021/04/21 04:40:12;;;;;;;16.95;12.63;;;;;;;;;;5130742;27;20123;-48
2021/04/21 04:42:38;;;;;;;17.13;12.13;;;;;;;;;;5117661;27;20030;-51
2021/04/21 04:45:05;;;;;;;18.55;12.45;;;;;;;;;;5114432;27;20027;-51
2021/04/21 04:47:37;;;;;;;20.08;13.43;;;;;;;;;;5133154;27;20043;-51
2021/04/21 04:50:10;;;;;;;17.00;12.38;;;;;;;;;;5130559;27;20102;-49
2021/04/21 04:52:37;;;;;;;16.27;12.88;;;;;;;;;;5129291;27;20050;-48
2021/04/21 04:55:03;;;;;;;15.40;12.48;;;;;;;;;;5125183;27;20373;-52
2021/04/21 04:57:30;;;;;;;21.58;13.98;;;;;;;;;;5131278;27;20431;-52
2021/04/21 04:59:58;;;;;;;17.80;14.30;;;;;;;;;;5123299;27;20015;-51
2021/04/21 05:02:25;;;;;;;17.95;12.95;;;;;;;;;;5126981;27;20023;-51
2021/04/21 05:04:57;;;;;;;20.45;14.27;;;;;;;;;;5127066;27;20467;-50
2021/04/21 05:07:24;;;;;;;18.85;13.95;;;;;;;;;;5115462;28;20025;-54
2021/04/21 05:09:51;;;;;;;20.63;14.25;;;;;;;;;;5128285;27;20011;-52
2021/04/21 05:12:16;;;;;;;17.00;12.95;;;;;;;;;;5124275;27;20023;-50
2021/04/21 05:14:46;;;;;;;17.42;14.23;;;;;;;;;;5119561;27;20374;-50
2021/04/21 05:17:30;;;;;;;15.23;12.43;;;;;;;;;;5120974;27;20019;-50
2021/04/21 05:19:58;;;;;;;17.13;12.57;;;;;;;;;;5131707;28;20045;-47
2021/04/21 05:22:26;;;;;;;17.40;12.60;;;;;;;;;;5112517;28;20042;-49
2021/04/21 05:25:09;;;;;;;15.50;12.52;;;;;;;;;;5116902;28;20439;-49
2021/04/21 05:27:43;;;;;;;14.32;11.90;;;;;;;;;;5120406;27;20145;-53
2021/04/21 05:30:09;;;;;;;18.10;11.70;;;;;;;;;;5118203;28;20031;-52
2021/04/21 05:32:40;;;;;;;17.25;11.60;;;;;;;;;;5119037;27;20386;-51
2021/04/21 05:35:24;;;;;;;14.48;11.05;;;;;;;;;;5116124;28;20361;-54
2021/04/21 05:38:08;;;;;;;14.70;11.45;;;;;;;;;;5127189;28;20015;-50
2021/04/21 05:40:42;;;;;;;15.02;11.15;;;;;;;;;;5118297;28;20036;-53
2021/04/21 05:43:27;;;;;;;13.90;11.10;;;;;;;;;;5118917;27;20508;-50
2021/04/21 05:46:07;;;;;;;14.20;11.13;;;;;;;;;;5122746;28;20233;-52
2021/04/21 05:48:32;;;;;;;15.18;11.45;;;;;;;;;;5127400;28;20106;-51
2021/04/21 05:51:03;;;;;;;16.83;11.88;;;;;;;;;;5123482;27;20099;-48
2021/04/21 05:53:47;;;;;;;12.52;9.52;;;;;;;;;;5126671;28;20034;-52
2021/04/21 05:56:24;;;;;;;12.25;8.88;;;;;;;;;;5114885;28;20027;-48
2021/04/21 05:59:08;;;;;;;10.45;8.40;;;;;;;;;;5128867;28;20382;-51
2021/04/21 06:01:34;;;;;;;8.90;8.00;;;;;;;;;;5125887;27;20011;-51
2021/04/21 06:04:00;;;;;;;10.75;8.52;;;;;;;;;;5132130;27;20015;-50
2021/04/21 06:06:26;;;;;;;8.65;7.22;;;;;;;;;;5116104;27;20364;-52
2021/04/21 06:08:51;;;;;;;11.32;7.97;;;;;;;;;;5126131;27;20020;-51
2021/04/21 06:11:20;;;;;;;9.95;7.78;;;;;;;;;;5120577;27;20034;-49
2021/04/21 06:13:46;;;;;;;10.48;7.93;;;;;;;;;;5125588;27;20019;-54
2021/04/21 06:16:15;;;;;;;11.95;8.25;;;;;;;;;;5120781;27;20020;-48
2021/04/21 06:18:41;;;;;;;11.43;8.02;;;;;;;;;;5123760;27;20019;-54
2021/04/21 06:21:14;;;;;;;9.18;7.80;;;;;;;;;;5127806;27;20018;-50
2021/04/21 06:23:39;;;;;;;8.82;7.30;;;;;;;;;;5131605;27;20105;-52
2021/04/21 06:26:04;;;;;;;9.43;8.15;;;;;;;;;;5132919;27;20031;-51
2021/04/21 06:28:30;;;;;;;10.05;7.40;;;;;;;;;;5131757;27;20026;-54
2021/04/21 06:31:01;;;;;;;11.60;7.95;;;;;;;;;;5135301;27;20019;-50
2021/04/21 06:33:30;;;;;;;9.75;7.45;;;;;;;;;;5126603;27;20453;-51
2021/04/21 06:35:56;;;;;;;9.25;8.10;;;;;;;;;;5115200;28;20379;-53
2021/04/21 06:38:26;;;;;;;10.52;8.18;;;;;;;;;;5119983;27;20019;-53
2021/04/21 06:40:52;;;;;;;9.32;7.63;;;;;;;;;;5122172;27;20479;-51
2021/04/21 06:43:22;;;;;;;9.52;7.13;;;;;;;;;;5125867;27;20098;-50
2021/04/21 06:45:49;;;;;;;8.20;6.35;;;;;;;;;;5118843;27;20107;-53
2021/04/21 06:48:14;;;;;;;9.02;6.72;;;;;;;;;;5121380;27;20096;-54
2021/04/21 06:50:40;;;;;;;8.00;7.20;;;;;;;;;;5135112;27;20023;-52
2021/04/21 06:53:07;;;;;;;11.15;8.25;;;;;;;;;;5113583;27;20036;-53
2021/04/21 06:55:33;;;;;;;10.43;7.85;;;;;;;;;;5118845;27;20471;-52
2021/04/21 06:57:58;;;;;;;9.27;8.38;;;;;;;;;;5128200;27;20470;-49
2021/04/21 07:00:25;;;;;;;8.18;5.22;;;;;;;;;;5126416;27;20110;-52
2021/04/21 07:02:51;;;;;;;9.57;7.88;;;;;;;;;;5118556;27;20066;-53
2021/04/21 07:05:26;;;;;;;8.90;7.60;;;;;;;;;;5124723;27;20479;-51
2021/04/21 07:07:59;;;;;;;11.10;9.05;;;;;;;;;;5133224;27;20027;-48
2021/04/21 07:10:24;;;;;;;11.10;8.20;;;;;;;;;;5125064;27;20023;-51
2021/04/21 07:12:49;;;;;;;10.65;8.48;;;;;;;;;;5130892;27;20088;-54
2021/04/21 07:15:15;;;;;;;10.23;8.48;;;;;;;;;;5134303;27;20074;-54
2021/04/21 07:17:40;;;;;;;11.13;9.02;;;;;;;;;;5123764;27;20026;-54
2021/04/21 07:20:06;;;;;;;10.80;7.88;;;;;;;;;;5134711;27;20482;-48
2021/04/21 07:22:31;;;;;;;11.10;8.82;;;;;;;;;;5112218;27;20386;-51
2021/04/21 07:24:57;;;;;;;10.48;8.48;;;;;;;;;;5129305;27;20019;-50
2021/04/21 07:27:22;;;;;;;9.93;8.75;;;;;;;;;;5134777;27;20023;-51
2021/04/21 07:29:48;;;;;;;8.65;7.00;;;;;;;;;;5134512;27;20151;-51
2021/04/21 07:32:36;;;;;;;9.13;7.82;;;;;;;;;;5120804;27;20110;-52
2021/04/21 07:35:03;;;;;;;8.93;8.02;;;;;;;;;;5124581;27;20045;-52
2021/04/21 07:37:40;;;;;;;7.50;6.68;;;;;;;;;;5133866;27;20027;-53
2021/04/21 07:40:25;;;;;;;10.82;7.88;;;;;;;;;;5133722;27;20026;-51
2021/04/21 07:42:50;;;;;;;10.57;7.68;;;;;;;;;;5111063;28;20432;-53
2021/04/21 07:45:20;;;;;;;7.07;4.80;;;;;;;;;;5125054;27;20027;-54
2021/04/21 07:47:45;;;;;;;10.02;7.40;;;;;;;;;;5132333;27;20054;-52
2021/04/21 07:50:10;;;;;;;11.65;8.68;;;;;;;;;;5133228;27;20091;-52
2021/04/21 07:52:36;;;;;;;10.85;8.18;;;;;;;;;;5126976;27;20122;-50
2021/04/21 07:55:06;;;;;;;7.93;3.92;;;;;;;;;;5130850;27;20381;-53
2021/04/21 07:57:31;;;;;;;10.43;8.15;;;;;;;;;;5121301;27;20374;-51
2021/04/21 07:59:56;;;;;;;10.50;8.40;;;;;;;;;;5132867;27;20103;-49
2021/04/21 08:02:22;;;;;;;10.30;8.80;;;;;;;;;;5110943;27;20020;-51
2021/04/21 08:05:07;;;;;;;8.98;7.45;;;;;;;;;;5116708;27;20015;-53
2021/04/21 08:07:35;;;;;;;10.27;6.50;;;;;;;;;;5130201;27;20020;-51
2021/04/21 08:10:01;;;;;;;10.15;7.30;;;;;;;;;;5115136;27;20028;-52
2021/04/21 08:12:28;;;;;;;9.02;8.05;;;;;;;;;;5110309;28;20057;-48
2021/04/21 08:14:57;;;;;;;10.68;8.48;;;;;;;;;;5113877;27;20107;-47
2021/04/21 08:17:22;;;;;;;10.15;8.80;;;;;;;;;;5127280;27;20016;-48
2021/04/21 08:19:48;;;;;;;9.95;7.55;;;;;;;;;;5129751;27;20094;-52
2021/04/21 08:22:22;;;;;;;7.03;5.60;;;;;;;;;;5130863;27;20022;-52
2021/04/21 08:24:47;;;;;;;10.25;7.93;;;;;;;;;;5132820;27;20027;-51
2021/04/21 08:27:13;;;;;;;9.20;8.30;;;;;;;;;;5121897;27;20093;-50
2021/04/21 08:29:39;;;;;;;10.43;7.32;;;;;;;;;;5131968;27;20386;-50
2021/04/21 08:32:05;;;;;;;9.02;7.95;;;;;;;;;;5130572;27;20023;-52
2021/04/21 08:34:30;;;;;;;12.15;8.50;;;;;;;;;;5128529;27;20023;-50
2021/04/21 08:36:55;;;;;;;9.98;8.32;;;;;;;;;;5120489;27;20090;-53
2021/04/21 08:39:20;;;;;;;8.10;7.03;;;;;;;;;;5128469;27;20080;-52
2021/04/21 08:41:46;;;;;;;11.07;8.77;;;;;;;;;;5123490;27;20027;-51
2021/04/21 08:44:12;;;;;;;10.95;7.75;;;;;;;;;;5132929;27;20015;-51
2021/04/21 08:46:38;;;;;;;9.25;7.20;;;;;;;;;;5118399;27;20482;-50
2021/04/21 08:49:04;;;;;;;10.05;7.75;;;;;;;;;;5133172;27;20393;-52
2021/04/21 08:51:29;;;;;;;12.43;8.60;;;;;;;;;;5109752;28;20064;-50
2021/04/21 08:54:02;;;;;;;11.15;7.85;;;;;;;;;;5119526;27;20501;-52
2021/04/21 08:56:29;;;;;;;9.52;8.50;;;;;;;;;;5123466;27;20064;-50
2021/04/21 08:58:56;;;;;;;13.50;8.07;;;;;;;;;;5124247;27;20424;-52
2021/04/21 09:01:21;;;;;;;10.23;8.68;;;;;;;;;;5129525;27;20704;-52
2021/04/21 09:03:47;;;;;;;9.30;8.10;;;;;;;;;;5132870;27;20049;-48
2021/04/21 09:06:15;;;;;;;10.43;7.60;;;;;;;;;;5132913;27;20080;-53
2021/04/21 09:08:41;;;;;;;9.32;8.30;;;;;;;;;;5132121;27;20030;-50
2021/04/21 09:11:06;;;;;;;9.18;7.93;;;;;;;;;;5125551;27;20019;-50
2021/04/21 09:13:32;;;;;;;8.63;6.53;;;;;;;;;;5131047;28;20115;-52
2021/04/21 09:15:57;;;;;;;8.75;5.85;;;;;;;;;;5131543;27;20034;-49
2021/04/21 09:18:24;;;;;;;11.95;7.32;;;;;;;;;;5129253;27;20016;-51
2021/04/21 09:20:49;;;;;;;8.77;6.57;;;;;;;;;;5128261;27;20012;-52
2021/04/21 09:23:14;;;;;;;11.07;7.78;;;;;;;;;;5129073;28;20023;-50
2021/04/21 09:25:41;;;;;;;11.02;7.50;;;;;;;;;;5124136;27;20023;-51
2021/04/21 09:28:08;;;;;;;11.27;6.70;;;;;;;;;;5131640;28;20027;-51
2021/04/21 09:30:36;;;;;;;8.60;6.35;;;;;;;;;;5132770;27;20148;-51
2021/04/21 09:33:02;;;;;;;8.85;7.72;;;;;;;;;;5122936;27;20069;-50
2021/04/21 09:35:28;;;;;;;10.82;8.05;;;;;;;;;;5117527;28;20019;-51
2021/04/21 09:38:01;;;;;;;9.35;7.72;;;;;;;;;;5135039;27;20019;-49
2021/04/21 09:40:40;;;;;;;8.32;7.40;;;;;;;;;;5136000;27;20024;-52
2021/04/21 09:43:06;;;;;;;11.00;7.63;;;;;;;;;;5125266;27;20031;-50
2021/04/21 09:45:34;;;;;;;10.98;6.93;;;;;;;;;;5136852;27;20027;-48
2021/04/21 09:48:06;;;;;;;8.95;6.57;;;;;;;;;;5134893;27;20019;-53
2021/04/21 09:50:31;;;;;;;7.45;5.75;;;;;;;;;;5138788;27;20048;-49
2021/04/21 09:52:56;;;;;;;8.85;6.75;;;;;;;;;;5132955;27;20088;-53
2021/04/21 09:55:28;;;;;;;10.13;6.60;;;;;;;;;;5116336;28;20530;-51
2021/04/21 09:57:54;;;;;;;12.73;7.07;;;;;;;;;;5135907;27;20026;-49
2021/04/21 10:00:23;;;;;;;9.32;6.10;;;;;;;;;;5135835;27;20019;-52
2021/04/21 10:02:48;;;;;;;8.57;7.18;;;;;;;;;;5126267;27;20027;-54
2021/04/21 10:05:21;;;;;;;8.05;6.68;;;;;;;;;;5126996;27;20079;-51
2021/04/21 10:07:46;;;;;;;9.60;7.22;;;;;;;;;;5121651;27;20031;-52
2021/04/21 10:10:11;;;;;;;7.55;6.25;;;;;;;;;;5132706;27;20709;-51
2021/04/21 10:12:39;;;;;;;11.32;7.55;;;;;;;;;;5133079;27;20064;-48
2021/04/21 10:15:09;;;;;;;12.02;7.55;;;;;;;;;;5133158;27;20018;-50
2021/04/21 10:17:39;;;;;;;9.52;7.07;;;;;;;;;;5130678;27;20088;-53
2021/04/21 10:20:06;;;;;;;8.57;7.30;;;;;;;;;;5132245;27;20023;-52
2021/04/21 10:22:31;;;;;;;8.75;6.60;;;;;;;;;;5131067;27;20019;-52
2021/04/21 10:24:57;;;;;;;10.27;8.10;;;;;;;;;;5135401;27;20052;-53
2021/04/21 10:27:23;;;;;;;10.15;8.32;;;;;;;;;;5133020;27;20022;-53
2021/04/21 10:29:48;;;;;;;10.40;8.57;;;;;;;;;;5117801;27;20015;-51
2021/04/21 10:32:16;;;;;;;9.90;7.60;;;;;;;;;;5128239;27;20080;-51
2021/04/21 10:34:45;;;;;;;11.68;6.85;;;;;;;;;;5123133;27;20062;-50
2021/04/21 10:37:11;;;;;;;9.98;7.82;;;;;;;;;;5119996;27;20017;-53
2021/04/21 10:39:36;;;;;;;11.20;7.68;;;;;;;;;;5127813;27;20019;-49
2021/04/21 10:42:03;;;;;;;9.27;8.20;;;;;;;;;;5130456;27;20087;-52
2021/04/21 10:44:31;;;;;;;8.95;7.22;;;;;;;;;;5128680;27;20112;-50
2021/04/21 10:47:00;;;;;;;10.32;7.03;;;;;;;;;;5135066;27;20019;-50
2021/04/21 10:49:40;;;;;;;9.38;7.10;;;;;;;;;;5137626;27;20022;-52
2021/04/21 10:52:28;;;;;;;7.00;5.45;;;;;;;;;;5119544;27;20039;-52
2021/04/21 10:54:58;;;;;;;10.63;7.65;;;;;;;;;;5127686;27;20016;-49
2021/04/21 10:57:26;;;;;;;9.80;6.07;;;;;;;;;;5127454;27;20023;-51
2021/04/21 11:00:03;;;;;;;7.63;5.97;;;;;;;;;;5121998;27;20028;-53
2021/04/21 11:02:55;;;;;;;6.63;6.00;;;;;;;;;;5132513;27;20103;-51
2021/04/21 11:05:22;;;;;;;7.18;4.97;;;;;;;;;;5102911;27;20023;-51
2021/04/21 11:08:06;;;;;;;8.38;6.05;;;;;;;;;;5127031;27;20031;-51
2021/04/21 11:10:37;;;;;;;6.22;5.22;;;;;;;;;;5119981;27;20378;-53
2021/04/21 11:13:06;;;;;;;8.68;5.22;;;;;;;;;;5124547;27;20019;-51
2021/04/21 11:15:42;;;;;;;6.20;4.50;;;;;;;;;;5130525;27;20068;-50
2021/04/21 11:18:07;;;;;;;9.77;5.90;;;;;;;;;;5135281;27;20026;-51
2021/04/21 11:20:45;;;;;;;6.07;5.18;;;;;;;;;;5121087;27;20016;-55
2021/04/21 11:23:28;;;;;;;5.35;4.82;;;;;;;;;;5123017;27;20098;-49
2021/04/21 11:26:14;;;;;;;5.90;4.95;;;;;;;;;;5115406;27;20379;-52
2021/04/21 11:28:59;;;;;;;8.65;4.70;;;;;;;;;;5113904;28;20121;-49
2021/04/21 11:31:43;;;;;;;8.25;5.40;;;;;;;;;;5096654;28;20027;-52
2021/04/21 11:34:17;;;;;;;5.95;4.03;;;;;;;;;;5129540;27;20069;-49
2021/04/21 11:36:42;;;;;;;8.10;5.35;;;;;;;;;;5124734;27;20095;-49
2021/04/21 11:39:08;;;;;;;6.30;5.13;;;;;;;;;;5131581;27;20098;-53
2021/04/21 11:41:40;;;;;;;5.72;4.10;;;;;;;;;;5130273;27;20802;-53
2021/04/21 11:44:05;;;;;;;7.45;4.97;;;;;;;;;;5124244;27;20020;-47
2021/04/21 11:46:49;;;;;;;6.22;5.00;;;;;;;;;;5118581;27;20022;-52
2021/04/21 11:49:35;;;;;;;8.07;4.82;;;;;;;;;;5127092;27;20466;-50
2021/04/21 11:52:00;;;;;;;;;;;;;;;;;;5113551;27;20086;-53
2021/04/21 11:54:25;;;;;;;7.22;5.38;;;;;;;;;;5121212;27;19948;-50
2021/04/21 11:56:50;;;;;;;7.88;4.63;;;;;;;;;;5140760;27;20055;-45
2021/04/21 11:59:15;;;;;;;4.90;4.38;;;;;;;;;;5132161;27;20023;-53
2021/04/21 12:01:41;;;;;;;5.40;3.17;;;;;;;;;;5116193;27;20020;-49
2021/04/21 12:04:09;;;;;;;8.35;4.60;;;;;;;;;;5121533;27;20024;-47
2021/04/21 12:06:35;;;;;;;6.03;3.95;;;;;;;;;;5127626;27;20098;-49
2021/04/21 12:09:00;;;;;;;4.80;3.70;;;;;;;;;;5133614;27;20163;-52
2021/04/21 12:11:26;;;;;;;5.75;3.67;;;;;;;;;;5130426;27;20023;-51
2021/04/21 12:13:51;;;;;;;6.72;4.15;;;;;;;;;;5133928;27;20052;-50
2021/04/21 12:16:18;;;;;;;5.43;3.55;;;;;;;;;;5132754;27;20011;-52
2021/04/21 12:18:43;;;;;;;5.55;3.70;;;;;;;;;;5132928;27;20039;-53
2021/04/21 12:21:14;;;;;;;6.40;3.85;;;;;;;;;;5131296;27;20042;-51
2021/04/21 12:23:40;;;;;;;8.75;3.70;;;;;;;;;;5132929;27;20470;-52
2021/04/21 12:26:15;;;;;;;5.72;3.67;;;;;;;;;;5133328;27;20023;-53
2021/04/21 12:28:45;;;;;;;4.22;3.63;;;;;;;;;;5132303;27;20019;-52
2021/04/21 12:31:10;;;;;;;6.00;3.72;;;;;;;;;;5130864;27;20033;-47
2021/04/21 12:33:35;;;;;;;6.97;3.95;;;;;;;;;;5129299;27;20114;-50
2021/04/21 12:36:00;;;;;;;5.47;3.47;;;;;;;;;;5113320;27;20045;-51
2021/04/21 12:38:30;;;;;;;6.40;3.55;;;;;;;;;;5112743;28;20051;-53
2021/04/21 12:40:56;;;;;;;5.10;3.35;;;;;;;;;;5120295;27;20382;-48
2021/04/21 12:43:24;;;;;;;5.00;3.15;;;;;;;;;;5130832;27;20114;-54
2021/04/21 12:45:50;;;;;;;5.90;2.70;;;;;;;;;;5127282;27;20023;-52
2021/04/21 12:48:25;;;;;;;4.68;3.13;;;;;;;;;;5112430;28;20028;-52
2021/04/21 12:50:51;;;;;;;5.22;3.33;;;;;;;;;;5127332;27;20482;-51
2021/04/21 12:53:18;;;;;;;3.22;2.92;;;;;;;;;;5121569;27;20440;-52
2021/04/21 12:55:44;;;;;;;4.93;3.55;;;;;;;;;;5112005;28;20502;-54
2021/04/21 12:58:09;;;;;;;4.53;2.63;;;;;;;;;;5129559;27;20050;-51
2021/04/21 13:00:34;;;;;;;4.22;3.20;;;;;;;;;;5129802;27;20434;-53
2021/04/21 13:03:00;;;;;;;4.15;3.75;;;;;;;;;;5124559;27;20087;-51
2021/04/21 13:05:44;;;;;;;6.50;3.63;;;;;;;;;;5131462;27;20058;-51
2021/04/21 13:08:18;;;;;;;5.82;3.92;;;;;;;;;;5128999;27;20430;-52
2021/04/21 13:10:43;;;;;;;4.20;3.22;;;;;;;;;;5126264;27;20063;-53
2021/04/21 13:13:09;;;;;;;5.80;3.63;;;;;;;;;;5131052;27;20505;-53
2021/04/21 13:15:36;;;;;;;6.22;4.18;;;;;;;;;;5133085;27;20374;-50
2021/04/21 13:18:08;;;;;;;8.63;3.60;;;;;;;;;;5136134;27;20474;-51
2021/04/21 13:20:46;;;;;;;6.30;3.60;;;;;;;;;;5135346;27;20015;-51
2021/04/21 13:23:22;;;;;;;5.43;3.50;;;;;;;;;;5129614;27;20031;-50
2021/04/21 13:25:58;;;;;;;6.43;4.10;;;;;;;;;;5132536;27;20031;-53
2021/04/21 13:28:30;;;;;;;6.97;4.15;;;;;;;;;;5136992;27;20110;-50
2021/04/21 13:31:13;;;;;;;8.07;4.20;;;;;;;;;;5128039;27;20076;-51
2021/04/21 13:33:39;;;;;;;4.63;3.67;;;;;;;;;;5135501;27;20073;-52
2021/04/21 13:36:06;;;;;;;4.80;4.00;;;;;;;;;;5131488;27;20019;-51
2021/04/21 13:38:31;;;;;;;6.40;3.90;;;;;;;;;;5132643;27;20024;-50
2021/04/21 13:40:56;;;;;;;4.38;3.42;;;;;;;;;;5127913;27;20011;-50
2021/04/21 13:43:21;;;;;;;3.73;3.43;;;;;;;;;;5128968;27;20015;-52
2021/04/21 13:45:47;;;;;;;6.43;4.05;;;;;;;;;;5128554;27;20798;-52
2021/04/21 13:48:12;;;;;;;6.13;3.88;;;;;;;;;;5138959;27;20462;-52
2021/04/21 13:50:37;;;;;;;5.45;3.67;;;;;;;;;;5133632;27;20121;-54
2021/04/21 13:53:02;;;;;;;8.32;3.90;;;;;;;;;;5128400;27;20039;-52
2021/04/21 13:55:28;;;;;;;4.60;3.30;;;;;;;;;;5136098;27;20038;-52
2021/04/21 13:57:53;;;;;;;7.05;4.07;;;;;;;;;;5142302;27;20771;-52
2021/04/21 14:00:20;;;;;;;6.68;3.38;;;;;;;;;;5136748;27;20102;-51
2021/04/21 14:02:46;;;;;;;4.70;3.53;;;;;;;;;;5136505;27;20103;-54
2021/04/21 14:05:11;;;;;;;7.38;3.88;;;;;;;;;;5139089;27;20546;-53
2021/04/21 14:07:36;;;;;;;5.00;3.50;;;;;;;;;;5124369;27;20016;-52
2021/04/21 14:10:03;;;;;;;5.03;3.75;;;;;;;;;;5126608;27;20016;-52
2021/04/21 14:12:28;;;;;;;5.47;3.88;;;;;;;;;;5132585;27;20072;-53
2021/04/21 14:14:53;;;;;;;7.63;3.58;;;;;;;;;;5139534;27;20030;-51
2021/04/21 14:17:18;;;;;;;5.53;3.50;;;;;;;;;;5138953;27;20051;-51
2021/04/21 14:19:44;;;;;;;3.97;3.53;;;;;;;;;;5139306;27;20019;-51
2021/04/21 14:22:09;;;;;;;8.57;3.70;;;;;;;;;;5120525;27;20042;-51
2021/04/21 14:24:34;;;;;;;6.35;3.60;;;;;;;;;;5115664;28;20303;-53
2021/04/21 14:27:00;;;;;;;4.78;3.47;;;;;;;;;;5115443;28;20024;-50
2021/04/21 14:29:26;;;;;;;5.88;3.67;;;;;;;;;;5123063;27;20475;-52
2021/04/21 14:31:51;;;;;;;4.47;3.47;;;;;;;;;;5129869;27;20019;-54
2021/04/21 14:34:16;;;;;;;4.47;4.00;;;;;;;;;;5130607;27;20027;-54
2021/04/21 14:36:42;;;;;;;5.00;3.53;;;;;;;;;;5119053;27;20257;-50
2021/04/21 14:39:08;;;;;;;7.00;3.38;;;;;;;;;;5129028;27;20260;-53
2021/04/21 14:41:40;;;;;;;4.13;3.70;;;;;;;;;;5131032;27;20011;-54
2021/04/21 14:44:06;;;;;;;5.65;3.88;;;;;;;;;;5131453;27;20032;-52